sensor_id;sensor_type;location;lat;lon;timestamp;temperature;humidity
39099;DHT22;24844;52.380;7.018;2024-02-15T00:00:47;12.60;99.90
39099;DHT22;24844;52.380;7.018;2024-02-15T00:03:13;12.50;99.90
39099;DHT22;24844;52.380;7.018;2024-02-15T00:05:39;12.90;99.90
39099;DHT22;24844;52.380;7.018;2024-02-15T00:08:05;12.40;99.90
39099;DHT22;24844;52.380;7.018;2024-02-15T00:10:31;12.70;99.90
39099;DHT22;24844;52.380;7.018;2024-02-15T00:12:57;12.70;99.90
39099;DHT22;24844;52.380;7.018;2024-02-15T00:15:23;12.90;99.90
39099;DHT22;24844;52.380;7.018;2024-02-15T00:17:49;13.10;99.90
39099;DHT22;24844;52.380;7.018;2024-02-15T00:20:14;12.50;99.90
39099;DHT22;24844;52.380;7.018;2024-02-15T00:22:40;12.90;99.90
39099;DHT22;24844;52.380;7.018;2024-02-15T00:25:09;13.10;99.90
39099;DHT22;24844;52.380;7.018;2024-02-15T00:27:37;12.80;99.90
39099;DHT22;24844;52.380;7.018;2024-02-15T00:30:03;12.80;99.90
39099;DHT22;24844;52.380;7.018;2024-02-15T00:32:30;12.70;99.90
39099;DHT22;24844;52.380;7.018;2024-02-15T00:34:56;12.90;99.90
39099;DHT22;24844;52.380;7.018;2024-02-15T00:37:22;12.50;99.90
39099;DHT22;24844;52.380;7.018;2024-02-15T00:39:48;13.10;99.90
39099;DHT22;24844;52.380;7.018;2024-02-15T00:42:13;12.90;99.90
39099;DHT22;24844;52.380;7.018;2024-02-15T00:44:41;13.00;99.90
39099;DHT22;24844;52.380;7.018;2024-02-15T00:47:07;12.70;99.90
39099;DHT22;24844;52.380;7.018;2024-02-15T00:49:33;12.80;99.90
39099;DHT22;24844;52.380;7.018;2024-02-15T00:51:59;12.80;99.90
39099;DHT22;24844;52.380;7.018;2024-02-15T00:54:24;13.00;99.90
39099;DHT22;24844;52.380;7.018;2024-02-15T00:56:51;12.60;99.90
39099;DHT22;24844;52.380;7.018;2024-02-15T00:59:16;12.60;99.90
39099;DHT22;24844;52.380;7.018;2024-02-15T01:01:43;13.10;99.90
39099;DHT22;24844;52.380;7.018;2024-02-15T01:04:09;13.30;99.90
39099;DHT22;24844;52.380;7.018;2024-02-15T01:06:34;12.90;99.90
39099;DHT22;24844;52.380;7.018;2024-02-15T01:09:00;13.00;99.90
39099;DHT22;24844;52.380;7.018;2024-02-15T01:11:27;13.20;99.90
39099;DHT22;24844;52.380;7.018;2024-02-15T01:13:57;12.80;99.90
39099;DHT22;24844;52.380;7.018;2024-02-15T01:16:24;12.60;99.90
39099;DHT22;24844;52.380;7.018;2024-02-15T01:18:53;13.10;99.90
39099;DHT22;24844;52.380;7.018;2024-02-15T01:21:18;12.70;99.90
39099;DHT22;24844;52.380;7.018;2024-02-15T01:23:44;12.50;99.90
39099;DHT22;24844;52.380;7.018;2024-02-15T01:26:12;12.50;99.90
39099;DHT22;24844;52.380;7.018;2024-02-15T01:28:39;12.60;99.90
39099;DHT22;24844;52.380;7.018;2024-02-15T01:31:05;12.80;99.90
39099;DHT22;24844;52.380;7.018;2024-02-15T01:33:34;12.90;99.90
39099;DHT22;24844;52.380;7.018;2024-02-15T01:36:02;12.60;99.90
39099;DHT22;24844;52.380;7.018;2024-02-15T01:38:27;12.40;99.90
39099;DHT22;24844;52.380;7.018;2024-02-15T01:40:53;12.80;99.90
39099;DHT22;24844;52.380;7.018;2024-02-15T01:43:18;12.60;99.90
39099;DHT22;24844;52.380;7.018;2024-02-15T01:45:44;12.20;99.90
39099;DHT22;24844;52.380;7.018;2024-02-15T01:48:13;12.10;99.90
39099;DHT22;24844;52.380;7.018;2024-02-15T01:50:40;12.50;99.90
39099;DHT22;24844;52.380;7.018;2024-02-15T01:53:07;12.60;99.90
39099;DHT22;24844;52.380;7.018;2024-02-15T01:55:37;12.30;99.90
39099;DHT22;24844;52.380;7.018;2024-02-15T01:58:03;12.40;99.90
39099;DHT22;24844;52.380;7.018;2024-02-15T02:00:30;12.10;99.90
39099;DHT22;24844;52.380;7.018;2024-02-15T02:02:56;12.40;99.90
39099;DHT22;24844;52.380;7.018;2024-02-15T02:05:27;12.30;99.90
39099;DHT22;24844;52.380;7.018;2024-02-15T02:07:55;12.60;99.90
39099;DHT22;24844;52.380;7.018;2024-02-15T02:10:25;12.80;99.90
39099;DHT22;24844;52.380;7.018;2024-02-15T02:12:52;12.40;99.90
39099;DHT22;24844;52.380;7.018;2024-02-15T02:15:18;12.90;99.90
39099;DHT22;24844;52.380;7.018;2024-02-15T02:17:49;12.70;99.90
39099;DHT22;24844;52.380;7.018;2024-02-15T02:20:16;12.40;99.90
39099;DHT22;24844;52.380;7.018;2024-02-15T02:22:47;12.40;99.90
39099;DHT22;24844;52.380;7.018;2024-02-15T02:25:13;12.60;99.90
39099;DHT22;24844;52.380;7.018;2024-02-15T02:27:39;12.20;99.90
39099;DHT22;24844;52.380;7.018;2024-02-15T02:30:15;12.40;99.90
39099;DHT22;24844;52.380;7.018;2024-02-15T02:32:44;12.50;99.90
39099;DHT22;24844;52.380;7.018;2024-02-15T02:35:11;12.30;99.90
39099;DHT22;24844;52.380;7.018;2024-02-15T02:37:38;12.80;99.90
39099;DHT22;24844;52.380;7.018;2024-02-15T02:40:05;12.50;99.90
39099;DHT22;24844;52.380;7.018;2024-02-15T02:42:35;12.80;99.90
39099;DHT22;24844;52.380;7.018;2024-02-15T02:45:01;12.30;99.90
39099;DHT22;24844;52.380;7.018;2024-02-15T02:47:26;12.50;99.90
39099;DHT22;24844;52.380;7.018;2024-02-15T02:49:52;12.80;99.90
39099;DHT22;24844;52.380;7.018;2024-02-15T02:52:17;12.60;99.90
39099;DHT22;24844;52.380;7.018;2024-02-15T02:54:43;12.60;99.90
39099;DHT22;24844;52.380;7.018;2024-02-15T02:57:09;12.50;99.90
39099;DHT22;24844;52.380;7.018;2024-02-15T02:59:34;12.20;99.90
39099;DHT22;24844;52.380;7.018;2024-02-15T03:02:01;12.30;99.90
39099;DHT22;24844;52.380;7.018;2024-02-15T03:04:27;12.60;99.90
39099;DHT22;24844;52.380;7.018;2024-02-15T03:06:53;12.40;99.90
39099;DHT22;24844;52.380;7.018;2024-02-15T03:09:21;12.30;99.90
39099;DHT22;24844;52.380;7.018;2024-02-15T03:11:48;12.70;99.90
39099;DHT22;24844;52.380;7.018;2024-02-15T03:14:15;12.40;99.90
39099;DHT22;24844;52.380;7.018;2024-02-15T03:16:40;12.50;99.90
39099;DHT22;24844;52.380;7.018;2024-02-15T03:19:06;12.60;99.90
39099;DHT22;24844;52.380;7.018;2024-02-15T03:21:34;12.30;99.90
39099;DHT22;24844;52.380;7.018;2024-02-15T03:24:00;12.60;99.90
39099;DHT22;24844;52.380;7.018;2024-02-15T03:26:32;12.60;99.90
39099;DHT22;24844;52.380;7.018;2024-02-15T03:29:03;12.60;99.90
39099;DHT22;24844;52.380;7.018;2024-02-15T03:31:28;12.40;99.90
39099;DHT22;24844;52.380;7.018;2024-02-15T03:33:57;12.10;99.90
39099;DHT22;24844;52.380;7.018;2024-02-15T03:36:22;12.20;99.90
39099;DHT22;24844;52.380;7.018;2024-02-15T03:38:48;12.20;99.90
39099;DHT22;24844;52.380;7.018;2024-02-15T03:41:14;12.40;99.90
39099;DHT22;24844;52.380;7.018;2024-02-15T03:43:40;12.70;99.90
39099;DHT22;24844;52.380;7.018;2024-02-15T03:46:05;12.60;99.90
39099;DHT22;24844;52.380;7.018;2024-02-15T03:48:34;12.70;99.90
39099;DHT22;24844;52.380;7.018;2024-02-15T03:50:59;12.20;99.90
39099;DHT22;24844;52.380;7.018;2024-02-15T03:53:27;12.30;99.90
39099;DHT22;24844;52.380;7.018;2024-02-15T03:55:56;12.40;99.90
39099;DHT22;24844;52.380;7.018;2024-02-15T03:58:22;12.40;99.90
39099;DHT22;24844;52.380;7.018;2024-02-15T04:00:48;12.80;99.90
39099;DHT22;24844;52.380;7.018;2024-02-15T04:03:13;12.60;99.90
39099;DHT22;24844;52.380;7.018;2024-02-15T04:05:39;12.30;99.90
39099;DHT22;24844;52.380;7.018;2024-02-15T04:08:05;12.20;99.90
39099;DHT22;24844;52.380;7.018;2024-02-15T04:10:31;12.70;99.90
39099;DHT22;24844;52.380;7.018;2024-02-15T04:12:56;12.10;99.90
39099;DHT22;24844;52.380;7.018;2024-02-15T04:15:23;12.50;99.90
39099;DHT22;24844;52.380;7.018;2024-02-15T04:17:49;12.60;99.90
39099;DHT22;24844;52.380;7.018;2024-02-15T04:20:21;12.10;99.90
39099;DHT22;24844;52.380;7.018;2024-02-15T04:22:47;12.40;99.90
39099;DHT22;24844;52.380;7.018;2024-02-15T04:25:12;12.70;99.90
39099;DHT22;24844;52.380;7.018;2024-02-15T04:27:48;12.60;99.90
39099;DHT22;24844;52.380;7.018;2024-02-15T04:30:15;12.10;99.90
39099;DHT22;24844;52.380;7.018;2024-02-15T04:32:43;12.20;99.90
39099;DHT22;24844;52.380;7.018;2024-02-15T04:35:09;12.60;99.90
39099;DHT22;24844;52.380;7.018;2024-02-15T04:37:35;12.40;99.90
39099;DHT22;24844;52.380;7.018;2024-02-15T04:40:03;12.10;99.90
39099;DHT22;24844;52.380;7.018;2024-02-15T04:42:35;12.40;99.90
39099;DHT22;24844;52.380;7.018;2024-02-15T04:45:04;12.10;99.90
39099;DHT22;24844;52.380;7.018;2024-02-15T04:47:36;12.20;99.90
39099;DHT22;24844;52.380;7.018;2024-02-15T04:50:02;12.10;99.90
39099;DHT22;24844;52.380;7.018;2024-02-15T04:52:29;12.50;99.90
39099;DHT22;24844;52.380;7.018;2024-02-15T04:54:55;12.00;99.90
39099;DHT22;24844;52.380;7.018;2024-02-15T04:57:20;12.50;99.90
39099;DHT22;24844;52.380;7.018;2024-02-15T04:59:47;12.10;99.90
39099;DHT22;24844;52.380;7.018;2024-02-15T05:02:14;12.20;99.90
39099;DHT22;24844;52.380;7.018;2024-02-15T05:04:39;12.20;99.90
39099;DHT22;24844;52.380;7.018;2024-02-15T05:07:08;11.90;99.90
39099;DHT22;24844;52.380;7.018;2024-02-15T05:09:34;12.10;99.90
39099;DHT22;24844;52.380;7.018;2024-02-15T05:12:00;11.80;99.90
39099;DHT22;24844;52.380;7.018;2024-02-15T05:14:28;11.80;99.90
39099;DHT22;24844;52.380;7.018;2024-02-15T05:16:53;11.90;99.90
39099;DHT22;24844;52.380;7.018;2024-02-15T05:19:19;12.10;99.90
39099;DHT22;24844;52.380;7.018;2024-02-15T05:21:46;11.80;99.90
39099;DHT22;24844;52.380;7.018;2024-02-15T05:24:15;11.80;99.90
39099;DHT22;24844;52.380;7.018;2024-02-15T05:26:43;12.40;99.90
39099;DHT22;24844;52.380;7.018;2024-02-15T05:29:12;12.00;99.90
39099;DHT22;24844;52.380;7.018;2024-02-15T05:31:38;11.90;99.90
39099;DHT22;24844;52.380;7.018;2024-02-15T05:34:07;11.60;99.90
39099;DHT22;24844;52.380;7.018;2024-02-15T05:36:33;11.70;99.90
39099;DHT22;24844;52.380;7.018;2024-02-15T05:39:00;11.90;99.90
39099;DHT22;24844;52.380;7.018;2024-02-15T05:41:25;11.80;99.90
39099;DHT22;24844;52.380;7.018;2024-02-15T05:43:51;12.00;99.90
39099;DHT22;24844;52.380;7.018;2024-02-15T05:46:20;12.00;99.90
39099;DHT22;24844;52.380;7.018;2024-02-15T05:48:48;11.90;99.90
39099;DHT22;24844;52.380;7.018;2024-02-15T05:51:14;11.60;99.90
39099;DHT22;24844;52.380;7.018;2024-02-15T05:53:40;11.70;99.90
39099;DHT22;24844;52.380;7.018;2024-02-15T05:56:08;11.80;99.90
39099;DHT22;24844;52.380;7.018;2024-02-15T05:58:37;11.50;99.90
39099;DHT22;24844;52.380;7.018;2024-02-15T06:01:04;11.80;99.90
39099;DHT22;24844;52.380;7.018;2024-02-15T06:03:37;11.50;99.90
39099;DHT22;24844;52.380;7.018;2024-02-15T06:06:04;11.50;99.90
39099;DHT22;24844;52.380;7.018;2024-02-15T06:08:34;11.70;99.90
39099;DHT22;24844;52.380;7.018;2024-02-15T06:10:59;11.50;99.90
39099;DHT22;24844;52.380;7.018;2024-02-15T06:13:26;11.80;99.90
39099;DHT22;24844;52.380;7.018;2024-02-15T06:15:52;11.30;99.90
39099;DHT22;24844;52.380;7.018;2024-02-15T06:18:25;11.40;99.90
39099;DHT22;24844;52.380;7.018;2024-02-15T06:20:52;11.70;99.90
39099;DHT22;24844;52.380;7.018;2024-02-15T06:23:17;11.50;99.90
39099;DHT22;24844;52.380;7.018;2024-02-15T06:25:44;11.50;99.90
39099;DHT22;24844;52.380;7.018;2024-02-15T06:28:10;11.60;99.90
39099;DHT22;24844;52.380;7.018;2024-02-15T06:30:45;11.80;99.90
39099;DHT22;24844;52.380;7.018;2024-02-15T06:33:30;11.80;99.90
39099;DHT22;24844;52.380;7.018;2024-02-15T06:36:14;12.10;99.90
39099;DHT22;24844;52.380;7.018;2024-02-15T06:38:58;11.80;99.90
39099;DHT22;24844;52.380;7.018;2024-02-15T06:41:42;12.00;99.90
39099;DHT22;24844;52.380;7.018;2024-02-15T06:44:08;11.60;99.90
39099;DHT22;24844;52.380;7.018;2024-02-15T06:46:35;11.80;99.90
39099;DHT22;24844;52.380;7.018;2024-02-15T06:49:00;12.00;99.90
39099;DHT22;24844;52.380;7.018;2024-02-15T06:51:26;11.60;99.90
39099;DHT22;24844;52.380;7.018;2024-02-15T06:53:52;11.80;99.90
39099;DHT22;24844;52.380;7.018;2024-02-15T06:56:21;11.50;99.90
39099;DHT22;24844;52.380;7.018;2024-02-15T06:58:47;11.50;99.90
39099;DHT22;24844;52.380;7.018;2024-02-15T07:01:14;11.70;99.90
39099;DHT22;24844;52.380;7.018;2024-02-15T07:03:45;11.90;99.90
39099;DHT22;24844;52.380;7.018;2024-02-15T07:06:11;11.70;99.90
39099;DHT22;24844;52.380;7.018;2024-02-15T07:08:39;11.70;99.90
39099;DHT22;24844;52.380;7.018;2024-02-15T07:11:07;12.10;99.90
39099;DHT22;24844;52.380;7.018;2024-02-15T07:13:37;11.50;99.90
39099;DHT22;24844;52.380;7.018;2024-02-15T07:16:07;11.50;99.90
39099;DHT22;24844;52.380;7.018;2024-02-15T07:18:33;11.80;99.90
39099;DHT22;24844;52.380;7.018;2024-02-15T07:20:59;11.70;99.90
39099;DHT22;24844;52.380;7.018;2024-02-15T07:23:26;12.00;99.90
39099;DHT22;24844;52.380;7.018;2024-02-15T07:25:52;11.70;99.90
39099;DHT22;24844;52.380;7.018;2024-02-15T07:28:20;11.50;99.90
39099;DHT22;24844;52.380;7.018;2024-02-15T07:30:46;11.60;99.90
39099;DHT22;24844;52.380;7.018;2024-02-15T07:33:14;12.00;99.90
39099;DHT22;24844;52.380;7.018;2024-02-15T07:35:45;11.80;99.90
39099;DHT22;24844;52.380;7.018;2024-02-15T07:38:11;11.90;99.90
39099;DHT22;24844;52.380;7.018;2024-02-15T07:40:37;11.90;99.90
39099;DHT22;24844;52.380;7.018;2024-02-15T07:43:05;11.80;99.90
39099;DHT22;24844;52.380;7.018;2024-02-15T07:45:31;12.00;99.90
39099;DHT22;24844;52.380;7.018;2024-02-15T07:48:02;12.10;99.90
39099;DHT22;24844;52.380;7.018;2024-02-15T07:50:30;12.30;99.90
39099;DHT22;24844;52.380;7.018;2024-02-15T07:52:56;12.00;99.90
39099;DHT22;24844;52.380;7.018;2024-02-15T07:55:21;11.90;99.90
39099;DHT22;24844;52.380;7.018;2024-02-15T07:57:47;12.10;99.90
39099;DHT22;24844;52.380;7.018;2024-02-15T08:00:13;12.20;99.90
39099;DHT22;24844;52.380;7.018;2024-02-15T08:02:42;12.20;99.90
39099;DHT22;24844;52.380;7.018;2024-02-15T08:05:09;11.90;99.90
39099;DHT22;24844;52.380;7.018;2024-02-15T08:07:41;12.20;99.90
39099;DHT22;24844;52.380;7.018;2024-02-15T08:10:07;11.70;99.90
39099;DHT22;24844;52.380;7.018;2024-02-15T08:12:43;11.70;99.90
39099;DHT22;24844;52.380;7.018;2024-02-15T08:15:09;11.80;99.90
39099;DHT22;24844;52.380;7.018;2024-02-15T08:17:39;11.70;99.90
39099;DHT22;24844;52.380;7.018;2024-02-15T08:20:07;12.00;99.90
39099;DHT22;24844;52.380;7.018;2024-02-15T08:22:33;11.90;99.90
39099;DHT22;24844;52.380;7.018;2024-02-15T08:24:59;12.20;99.90
39099;DHT22;24844;52.380;7.018;2024-02-15T08:27:25;12.20;99.90
39099;DHT22;24844;52.380;7.018;2024-02-15T08:30:08;11.80;99.90
39099;DHT22;24844;52.380;7.018;2024-02-15T08:32:35;12.00;99.90
39099;DHT22;24844;52.380;7.018;2024-02-15T08:35:00;11.70;99.90
39099;DHT22;24844;52.380;7.018;2024-02-15T08:37:26;12.20;99.90
39099;DHT22;24844;52.380;7.018;2024-02-15T08:39:53;11.80;99.90
39099;DHT22;24844;52.380;7.018;2024-02-15T08:42:18;11.80;99.90
39099;DHT22;24844;52.380;7.018;2024-02-15T08:44:47;11.90;99.90
39099;DHT22;24844;52.380;7.018;2024-02-15T08:47:13;12.30;99.90
39099;DHT22;24844;52.380;7.018;2024-02-15T08:49:39;11.90;99.90
39099;DHT22;24844;52.380;7.018;2024-02-15T08:52:06;12.30;99.90
39099;DHT22;24844;52.380;7.018;2024-02-15T08:54:33;11.90;99.90
39099;DHT22;24844;52.380;7.018;2024-02-15T08:56:59;12.30;99.90
39099;DHT22;24844;52.380;7.018;2024-02-15T08:59:26;12.10;99.90
39099;DHT22;24844;52.380;7.018;2024-02-15T09:01:55;12.20;99.90
39099;DHT22;24844;52.380;7.018;2024-02-15T09:04:21;11.90;99.90
39099;DHT22;24844;52.380;7.018;2024-02-15T09:06:50;12.40;99.90
39099;DHT22;24844;52.380;7.018;2024-02-15T09:09:16;11.70;99.90
39099;DHT22;24844;52.380;7.018;2024-02-15T09:11:42;11.50;99.90
39099;DHT22;24844;52.380;7.018;2024-02-15T09:14:08;12.20;99.90
39099;DHT22;24844;52.380;7.018;2024-02-15T09:16:38;11.60;99.90
39099;DHT22;24844;52.380;7.018;2024-02-15T09:19:09;11.90;99.90
39099;DHT22;24844;52.380;7.018;2024-02-15T09:21:35;11.60;99.90
39099;DHT22;24844;52.380;7.018;2024-02-15T09:24:02;11.70;99.90
39099;DHT22;24844;52.380;7.018;2024-02-15T09:26:27;12.10;99.90
39099;DHT22;24844;52.380;7.018;2024-02-15T09:28:53;11.60;99.90
39099;DHT22;24844;52.380;7.018;2024-02-15T09:31:19;12.40;99.90
39099;DHT22;24844;52.380;7.018;2024-02-15T09:33:45;12.40;99.90
39099;DHT22;24844;52.380;7.018;2024-02-15T09:36:11;12.40;99.90
39099;DHT22;24844;52.380;7.018;2024-02-15T09:38:37;12.40;99.90
39099;DHT22;24844;52.380;7.018;2024-02-15T09:41:04;12.20;99.90
39099;DHT22;24844;52.380;7.018;2024-02-15T09:43:34;12.30;99.90
39099;DHT22;24844;52.380;7.018;2024-02-15T09:46:00;12.40;99.90
39099;DHT22;24844;52.380;7.018;2024-02-15T09:48:29;12.20;99.90
39099;DHT22;24844;52.380;7.018;2024-02-15T09:51:00;12.50;99.90
39099;DHT22;24844;52.380;7.018;2024-02-15T09:53:26;12.50;99.90
39099;DHT22;24844;52.380;7.018;2024-02-15T09:55:54;12.10;99.90
39099;DHT22;24844;52.380;7.018;2024-02-15T09:58:21;12.10;99.90
39099;DHT22;24844;52.380;7.018;2024-02-15T10:00:49;12.00;99.90
39099;DHT22;24844;52.380;7.018;2024-02-15T10:03:18;12.60;99.90
39099;DHT22;24844;52.380;7.018;2024-02-15T10:05:48;12.50;99.90
39099;DHT22;24844;52.380;7.018;2024-02-15T10:08:14;12.30;99.90
39099;DHT22;24844;52.380;7.018;2024-02-15T10:10:41;12.30;99.90
39099;DHT22;24844;52.380;7.018;2024-02-15T10:13:12;12.60;99.90
39099;DHT22;24844;52.380;7.018;2024-02-15T10:15:39;12.40;99.90
39099;DHT22;24844;52.380;7.018;2024-02-15T10:18:10;12.20;99.90
39099;DHT22;24844;52.380;7.018;2024-02-15T10:20:40;12.30;99.90
39099;DHT22;24844;52.380;7.018;2024-02-15T10:23:14;12.50;99.90
39099;DHT22;24844;52.380;7.018;2024-02-15T10:25:43;12.10;99.90
39099;DHT22;24844;52.380;7.018;2024-02-15T10:28:13;12.10;99.90
39099;DHT22;24844;52.380;7.018;2024-02-15T10:30:42;12.10;99.90
39099;DHT22;24844;52.380;7.018;2024-02-15T10:33:18;12.40;99.90
39099;DHT22;24844;52.380;7.018;2024-02-15T10:35:47;12.50;99.90
39099;DHT22;24844;52.380;7.018;2024-02-15T10:38:13;12.70;99.90
39099;DHT22;24844;52.380;7.018;2024-02-15T10:40:40;12.40;99.90
39099;DHT22;24844;52.380;7.018;2024-02-15T10:43:10;12.60;99.90
39099;DHT22;24844;52.380;7.018;2024-02-15T10:45:38;12.10;99.90
39099;DHT22;24844;52.380;7.018;2024-02-15T10:48:09;12.70;99.90
39099;DHT22;24844;52.380;7.018;2024-02-15T10:50:35;12.40;99.90
39099;DHT22;24844;52.380;7.018;2024-02-15T10:53:26;12.40;99.90
39099;DHT22;24844;52.380;7.018;2024-02-15T10:56:03;12.10;99.90
39099;DHT22;24844;52.380;7.018;2024-02-15T10:58:44;12.40;99.90
39099;DHT22;24844;52.380;7.018;2024-02-15T11:01:12;12.20;99.90
39099;DHT22;24844;52.380;7.018;2024-02-15T11:03:51;12.10;99.90
39099;DHT22;24844;52.380;7.018;2024-02-15T11:06:20;12.60;99.90
39099;DHT22;24844;52.380;7.018;2024-02-15T11:08:48;12.70;99.90
39099;DHT22;24844;52.380;7.018;2024-02-15T11:11:14;12.40;99.90
39099;DHT22;24844;52.380;7.018;2024-02-15T11:13:40;12.60;99.90
39099;DHT22;24844;52.380;7.018;2024-02-15T11:16:08;12.50;99.90
39099;DHT22;24844;52.380;7.018;2024-02-15T11:18:47;12.90;99.90
39099;DHT22;24844;52.380;7.018;2024-02-15T11:21:18;12.80;99.90
39099;DHT22;24844;52.380;7.018;2024-02-15T11:23:44;12.30;99.90
39099;DHT22;24844;52.380;7.018;2024-02-15T11:26:45;12.50;99.90
39099;DHT22;24844;52.380;7.018;2024-02-15T11:32:42;12.40;99.90
39099;DHT22;24844;52.380;7.018;2024-02-15T11:35:13;12.50;99.90
39099;DHT22;24844;52.380;7.018;2024-02-15T11:40:25;12.80;99.90
39099;DHT22;24844;52.380;7.018;2024-02-15T11:42:56;12.70;99.90
39099;DHT22;24844;52.380;7.018;2024-02-15T11:45:24;12.70;99.90
39099;DHT22;24844;52.380;7.018;2024-02-15T11:47:52;12.40;99.90
39099;DHT22;24844;52.380;7.018;2024-02-15T11:50:20;12.30;99.90
39099;DHT22;24844;52.380;7.018;2024-02-15T11:52:49;12.40;99.90
39099;DHT22;24844;52.380;7.018;2024-02-15T11:55:22;12.40;99.90
39099;DHT22;24844;52.380;7.018;2024-02-15T11:58:16;12.60;99.90
39099;DHT22;24844;52.380;7.018;2024-02-15T12:00:47;12.40;99.90
39099;DHT22;24844;52.380;7.018;2024-02-15T12:03:32;12.20;99.90
39099;DHT22;24844;52.380;7.018;2024-02-15T12:06:19;12.40;99.90
39099;DHT22;24844;52.380;7.018;2024-02-15T12:09:03;12.30;99.90
39099;DHT22;24844;52.380;7.018;2024-02-15T12:11:57;12.80;99.90
39099;DHT22;24844;52.380;7.018;2024-02-15T12:14:41;13.00;99.90
39099;DHT22;24844;52.380;7.018;2024-02-15T12:17:25;13.00;99.90
39099;DHT22;24844;52.380;7.018;2024-02-15T12:20:09;12.50;99.90
39099;DHT22;24844;52.380;7.018;2024-02-15T12:22:47;12.90;99.90
39099;DHT22;24844;52.380;7.018;2024-02-15T12:25:15;12.70;99.90
39099;DHT22;24844;52.380;7.018;2024-02-15T12:27:42;13.00;99.90
39099;DHT22;24844;52.380;7.018;2024-02-15T12:30:13;12.80;99.90
39099;DHT22;24844;52.380;7.018;2024-02-15T12:32:39;13.10;99.90
39099;DHT22;24844;52.380;7.018;2024-02-15T12:35:15;13.00;99.90
39099;DHT22;24844;52.380;7.018;2024-02-15T12:38:01;12.90;99.90
39099;DHT22;24844;52.380;7.018;2024-02-15T12:40:35;12.90;99.90
39099;DHT22;24844;52.380;7.018;2024-02-15T12:43:02;12.60;99.90
39099;DHT22;24844;52.380;7.018;2024-02-15T12:45:32;12.60;99.90
39099;DHT22;24844;52.380;7.018;2024-02-15T12:47:58;13.00;99.90
39099;DHT22;24844;52.380;7.018;2024-02-15T12:50:29;13.20;99.90
39099;DHT22;24844;52.380;7.018;2024-02-15T12:52:55;12.80;99.90
39099;DHT22;24844;52.380;7.018;2024-02-15T12:55:21;13.10;99.90
39099;DHT22;24844;52.380;7.018;2024-02-15T12:57:53;13.10;99.90
39099;DHT22;24844;52.380;7.018;2024-02-15T13:00:26;12.80;99.90
39099;DHT22;24844;52.380;7.018;2024-02-15T13:03:03;12.70;99.90
39099;DHT22;24844;52.380;7.018;2024-02-15T13:05:30;12.50;99.90
39099;DHT22;24844;52.380;7.018;2024-02-15T13:07:56;12.70;99.90
39099;DHT22;24844;52.380;7.018;2024-02-15T13:10:41;12.90;99.90
39099;DHT22;24844;52.380;7.018;2024-02-15T13:13:09;13.00;99.90
39099;DHT22;24844;52.380;7.018;2024-02-15T13:15:35;13.00;99.90
39099;DHT22;24844;52.380;7.018;2024-02-15T13:18:02;13.20;99.90
39099;DHT22;24844;52.380;7.018;2024-02-15T13:20:31;13.40;99.90
39099;DHT22;24844;52.380;7.018;2024-02-15T13:23:04;13.30;99.90
39099;DHT22;24844;52.380;7.018;2024-02-15T13:25:51;13.60;99.90
39099;DHT22;24844;52.380;7.018;2024-02-15T13:28:17;13.30;99.90
39099;DHT22;24844;52.380;7.018;2024-02-15T13:30:43;13.80;99.90
39099;DHT22;24844;52.380;7.018;2024-02-15T13:33:11;13.70;99.90
39099;DHT22;24844;52.380;7.018;2024-02-15T13:35:37;13.40;99.90
39099;DHT22;24844;52.380;7.018;2024-02-15T13:38:03;13.10;99.90
39099;DHT22;24844;52.380;7.018;2024-02-15T13:40:29;13.70;99.90
39099;DHT22;24844;52.380;7.018;2024-02-15T13:43:00;13.10;99.90
39099;DHT22;24844;52.380;7.018;2024-02-15T13:45:33;13.00;99.90
39099;DHT22;24844;52.380;7.018;2024-02-15T13:48:03;13.40;99.90
39099;DHT22;24844;52.380;7.018;2024-02-15T13:50:38;13.20;99.90
39099;DHT22;24844;52.380;7.018;2024-02-15T13:53:05;13.50;99.90
39099;DHT22;24844;52.380;7.018;2024-02-15T13:55:34;13.30;99.90
39099;DHT22;24844;52.380;7.018;2024-02-15T13:58:02;13.70;99.90
39099;DHT22;24844;52.380;7.018;2024-02-15T14:00:28;13.60;99.90
39099;DHT22;24844;52.380;7.018;2024-02-15T14:03:01;13.60;99.90
39099;DHT22;24844;52.380;7.018;2024-02-15T14:05:28;13.30;99.90
39099;DHT22;24844;52.380;7.018;2024-02-15T14:07:59;13.30;99.90
39099;DHT22;24844;52.380;7.018;2024-02-15T14:10:31;13.60;99.90
39099;DHT22;24844;52.380;7.018;2024-02-15T14:12:57;13.10;99.90
39099;DHT22;24844;52.380;7.018;2024-02-15T14:15:33;12.80;99.90
39099;DHT22;24844;52.380;7.018;2024-02-15T14:18:10;13.10;99.90
39099;DHT22;24844;52.380;7.018;2024-02-15T14:20:36;13.20;99.90
39099;DHT22;24844;52.380;7.018;2024-02-15T14:23:03;13.30;99.90
39099;DHT22;24844;52.380;7.018;2024-02-15T14:25:31;13.10;99.90
39099;DHT22;24844;52.380;7.018;2024-02-15T14:27:58;13.10;99.90
39099;DHT22;24844;52.380;7.018;2024-02-15T14:30:24;13.30;99.90
39099;DHT22;24844;52.380;7.018;2024-02-15T14:33:08;13.30;99.90
39099;DHT22;24844;52.380;7.018;2024-02-15T14:35:38;13.50;99.90
39099;DHT22;24844;52.380;7.018;2024-02-15T14:38:09;13.40;99.90
39099;DHT22;24844;52.380;7.018;2024-02-15T14:40:41;13.10;99.90
39099;DHT22;24844;52.380;7.018;2024-02-15T14:43:08;13.00;99.90
39099;DHT22;24844;52.380;7.018;2024-02-15T14:45:36;13.40;99.90
39099;DHT22;24844;52.380;7.018;2024-02-15T14:48:02;13.50;99.90
39099;DHT22;24844;52.380;7.018;2024-02-15T14:50:28;13.10;99.90
39099;DHT22;24844;52.380;7.018;2024-02-15T14:52:54;12.80;99.90
39099;DHT22;24844;52.380;7.018;2024-02-15T14:55:20;12.70;99.90
39099;DHT22;24844;52.380;7.018;2024-02-15T14:57:46;13.10;99.90
39099;DHT22;24844;52.380;7.018;2024-02-15T15:00:13;12.90;99.90
39099;DHT22;24844;52.380;7.018;2024-02-15T15:02:47;13.20;99.90
39099;DHT22;24844;52.380;7.018;2024-02-15T15:05:14;13.10;99.90
39099;DHT22;24844;52.380;7.018;2024-02-15T15:07:58;12.90;99.90
39099;DHT22;24844;52.380;7.018;2024-02-15T15:10:45;13.00;99.90
39099;DHT22;24844;52.380;7.018;2024-02-15T15:13:29;13.00;99.90
39099;DHT22;24844;52.380;7.018;2024-02-15T15:15:55;12.80;99.90
39099;DHT22;24844;52.380;7.018;2024-02-15T15:18:21;12.90;99.90
39099;DHT22;24844;52.380;7.018;2024-02-15T15:20:47;12.90;99.90
39099;DHT22;24844;52.380;7.018;2024-02-15T15:23:13;12.70;99.90
39099;DHT22;24844;52.380;7.018;2024-02-15T15:25:42;13.20;99.90
39099;DHT22;24844;52.380;7.018;2024-02-15T15:28:07;12.80;99.90
39099;DHT22;24844;52.380;7.018;2024-02-15T15:30:33;12.80;99.90
39099;DHT22;24844;52.380;7.018;2024-02-15T15:33:00;12.90;99.90
39099;DHT22;24844;52.380;7.018;2024-02-15T15:35:29;12.80;99.90
39099;DHT22;24844;52.380;7.018;2024-02-15T15:37:56;13.20;99.90
39099;DHT22;24844;52.380;7.018;2024-02-15T15:40:23;13.20;99.90
39099;DHT22;24844;52.380;7.018;2024-02-15T15:42:48;12.70;99.90
39099;DHT22;24844;52.380;7.018;2024-02-15T15:45:14;13.00;99.90